sensor_id;sensor_type;location;lat;lon;timestamp;temperature;humidity
46091;DHT22;31826;53.572;10.170;2023-08-06T00:00:16;17.20;99.90
46091;DHT22;31826;53.572;10.170;2023-08-06T00:02:42;17.10;99.90
46091;DHT22;31826;53.572;10.170;2023-08-06T00:05:07;17.10;99.90
46091;DHT22;31826;53.572;10.170;2023-08-06T00:07:33;17.10;99.90
46091;DHT22;31826;53.572;10.170;2023-08-06T00:09:59;17.20;99.90
46091;DHT22;31826;53.572;10.170;2023-08-06T00:12:25;17.20;99.90
46091;DHT22;31826;53.572;10.170;2023-08-06T00:14:51;17.10;99.90
46091;DHT22;31826;53.572;10.170;2023-08-06T00:17:17;17.20;99.90
46091;DHT22;31826;53.572;10.170;2023-08-06T00:19:43;17.10;99.90
46091;DHT22;31826;53.572;10.170;2023-08-06T00:22:08;17.10;99.90
46091;DHT22;31826;53.572;10.170;2023-08-06T00:24:35;17.10;99.90
46091;DHT22;31826;53.572;10.170;2023-08-06T00:27:01;17.00;99.90
46091;DHT22;31826;53.572;10.170;2023-08-06T00:29:26;17.00;99.90
46091;DHT22;31826;53.572;10.170;2023-08-06T00:31:52;17.00;99.90
46091;DHT22;31826;53.572;10.170;2023-08-06T00:34:18;17.00;99.90
46091;DHT22;31826;53.572;10.170;2023-08-06T00:36:43;17.00;99.90
46091;DHT22;31826;53.572;10.170;2023-08-06T00:39:09;17.00;99.90
46091;DHT22;31826;53.572;10.170;2023-08-06T00:41:35;16.90;99.90
46091;DHT22;31826;53.572;10.170;2023-08-06T00:44:01;16.90;99.90
46091;DHT22;31826;53.572;10.170;2023-08-06T00:46:27;16.70;99.90
46091;DHT22;31826;53.572;10.170;2023-08-06T00:48:53;16.80;99.90
46091;DHT22;31826;53.572;10.170;2023-08-06T00:51:19;16.70;99.90
46091;DHT22;31826;53.572;10.170;2023-08-06T00:53:46;16.70;99.90
46091;DHT22;31826;53.572;10.170;2023-08-06T00:56:12;16.60;99.90
46091;DHT22;31826;53.572;10.170;2023-08-06T00:58:39;16.70;99.90
46091;DHT22;31826;53.572;10.170;2023-08-06T01:01:05;16.60;99.90
46091;DHT22;31826;53.572;10.170;2023-08-06T01:03:31;16.60;99.90
46091;DHT22;31826;53.572;10.170;2023-08-06T01:05:57;16.60;99.90
46091;DHT22;31826;53.572;10.170;2023-08-06T01:11:15;16.50;99.90
46091;DHT22;31826;53.572;10.170;2023-08-06T01:13:47;16.50;99.90
46091;DHT22;31826;53.572;10.170;2023-08-06T01:16:19;16.50;99.90
46091;DHT22;31826;53.572;10.170;2023-08-06T01:18:47;16.50;99.90
46091;DHT22;31826;53.572;10.170;2023-08-06T01:21:15;16.40;99.90
46091;DHT22;31826;53.572;10.170;2023-08-06T01:23:42;16.40;99.90
46091;DHT22;31826;53.572;10.170;2023-08-06T01:29:27;16.40;99.90
46091;DHT22;31826;53.572;10.170;2023-08-06T01:31:56;16.40;99.90
46091;DHT22;31826;53.572;10.170;2023-08-06T01:34:29;16.40;99.90
46091;DHT22;31826;53.572;10.170;2023-08-06T01:36:57;16.40;99.90
46091;DHT22;31826;53.572;10.170;2023-08-06T01:39:23;16.40;99.90
46091;DHT22;31826;53.572;10.170;2023-08-06T01:41:49;16.40;99.90
46091;DHT22;31826;53.572;10.170;2023-08-06T01:44:16;16.40;99.90
46091;DHT22;31826;53.572;10.170;2023-08-06T01:46:42;16.40;99.90
46091;DHT22;31826;53.572;10.170;2023-08-06T01:49:08;16.50;99.90
46091;DHT22;31826;53.572;10.170;2023-08-06T01:51:34;16.40;99.90
46091;DHT22;31826;53.572;10.170;2023-08-06T01:53:59;16.30;99.90
46091;DHT22;31826;53.572;10.170;2023-08-06T01:56:25;16.40;99.90
46091;DHT22;31826;53.572;10.170;2023-08-06T01:58:51;16.40;99.90
46091;DHT22;31826;53.572;10.170;2023-08-06T02:01:17;16.30;99.90
46091;DHT22;31826;53.572;10.170;2023-08-06T02:03:42;16.20;99.90
46091;DHT22;31826;53.572;10.170;2023-08-06T02:06:08;16.20;99.90
46091;DHT22;31826;53.572;10.170;2023-08-06T02:08:34;16.20;99.90
46091;DHT22;31826;53.572;10.170;2023-08-06T02:10:59;16.20;99.90
46091;DHT22;31826;53.572;10.170;2023-08-06T02:13:25;16.20;99.90
46091;DHT22;31826;53.572;10.170;2023-08-06T02:15:51;16.20;99.90
46091;DHT22;31826;53.572;10.170;2023-08-06T02:18:17;16.20;99.90
46091;DHT22;31826;53.572;10.170;2023-08-06T02:20:42;16.00;99.90
46091;DHT22;31826;53.572;10.170;2023-08-06T02:23:08;16.10;99.90
46091;DHT22;31826;53.572;10.170;2023-08-06T02:25:35;16.10;99.90
46091;DHT22;31826;53.572;10.170;2023-08-06T02:28:01;16.10;99.90
46091;DHT22;31826;53.572;10.170;2023-08-06T02:30:26;16.10;99.90
46091;DHT22;31826;53.572;10.170;2023-08-06T02:32:52;16.10;99.90
46091;DHT22;31826;53.572;10.170;2023-08-06T02:35:18;16.10;99.90
46091;DHT22;31826;53.572;10.170;2023-08-06T02:37:43;16.10;99.90
46091;DHT22;31826;53.572;10.170;2023-08-06T02:40:09;16.10;99.90
46091;DHT22;31826;53.572;10.170;2023-08-06T02:42:35;16.10;99.90
46091;DHT22;31826;53.572;10.170;2023-08-06T02:45:01;16.10;99.90
46091;DHT22;31826;53.572;10.170;2023-08-06T02:47:27;16.20;99.90
46091;DHT22;31826;53.572;10.170;2023-08-06T02:49:53;16.10;99.90
46091;DHT22;31826;53.572;10.170;2023-08-06T02:52:19;16.10;99.90
46091;DHT22;31826;53.572;10.170;2023-08-06T02:54:44;16.10;99.90
46091;DHT22;31826;53.572;10.170;2023-08-06T02:57:10;16.10;99.90
46091;DHT22;31826;53.572;10.170;2023-08-06T02:59:36;16.00;99.90
46091;DHT22;31826;53.572;10.170;2023-08-06T03:02:02;16.00;99.90
46091;DHT22;31826;53.572;10.170;2023-08-06T03:04:27;16.00;99.90
46091;DHT22;31826;53.572;10.170;2023-08-06T03:06:53;15.90;99.90
46091;DHT22;31826;53.572;10.170;2023-08-06T03:09:19;16.00;99.90
46091;DHT22;31826;53.572;10.170;2023-08-06T03:11:45;16.00;99.90
46091;DHT22;31826;53.572;10.170;2023-08-06T03:14:10;16.00;99.90
46091;DHT22;31826;53.572;10.170;2023-08-06T03:16:36;16.00;99.90
46091;DHT22;31826;53.572;10.170;2023-08-06T03:19:02;15.90;99.90
46091;DHT22;31826;53.572;10.170;2023-08-06T03:21:27;15.90;99.90
46091;DHT22;31826;53.572;10.170;2023-08-06T03:23:53;15.70;99.90
46091;DHT22;31826;53.572;10.170;2023-08-06T03:26:19;15.70;99.90
46091;DHT22;31826;53.572;10.170;2023-08-06T03:28:45;15.70;99.90
46091;DHT22;31826;53.572;10.170;2023-08-06T03:31:10;15.60;99.90
46091;DHT22;31826;53.572;10.170;2023-08-06T03:33:36;15.60;99.90
46091;DHT22;31826;53.572;10.170;2023-08-06T03:36:02;15.60;99.90
46091;DHT22;31826;53.572;10.170;2023-08-06T03:38:28;15.50;99.90
46091;DHT22;31826;53.572;10.170;2023-08-06T03:40:54;15.50;99.90
46091;DHT22;31826;53.572;10.170;2023-08-06T03:43:19;15.50;99.90
46091;DHT22;31826;53.572;10.170;2023-08-06T03:45:45;15.50;99.90
46091;DHT22;31826;53.572;10.170;2023-08-06T03:48:11;15.40;99.90
46091;DHT22;31826;53.572;10.170;2023-08-06T03:50:36;15.40;99.90
46091;DHT22;31826;53.572;10.170;2023-08-06T03:53:03;15.30;99.90
46091;DHT22;31826;53.572;10.170;2023-08-06T03:55:29;15.30;99.90
46091;DHT22;31826;53.572;10.170;2023-08-06T03:57:54;15.40;99.90
46091;DHT22;31826;53.572;10.170;2023-08-06T04:00:20;15.30;99.90
46091;DHT22;31826;53.572;10.170;2023-08-06T04:02:46;15.30;99.90
46091;DHT22;31826;53.572;10.170;2023-08-06T04:05:12;15.40;99.90
46091;DHT22;31826;53.572;10.170;2023-08-06T04:07:37;15.30;99.90
46091;DHT22;31826;53.572;10.170;2023-08-06T04:10:05;15.30;99.90
46091;DHT22;31826;53.572;10.170;2023-08-06T04:12:31;15.40;99.90
46091;DHT22;31826;53.572;10.170;2023-08-06T04:14:58;15.40;99.90
46091;DHT22;31826;53.572;10.170;2023-08-06T04:17:24;15.40;99.90
46091;DHT22;31826;53.572;10.170;2023-08-06T04:19:54;15.40;99.90
46091;DHT22;31826;53.572;10.170;2023-08-06T04:22:20;15.30;99.90
46091;DHT22;31826;53.572;10.170;2023-08-06T04:24:46;15.30;99.90
46091;DHT22;31826;53.572;10.170;2023-08-06T04:27:13;15.20;99.90
46091;DHT22;31826;53.572;10.170;2023-08-06T04:29:39;15.30;99.90
46091;DHT22;31826;53.572;10.170;2023-08-06T04:32:07;15.20;99.90
46091;DHT22;31826;53.572;10.170;2023-08-06T04:34:33;15.20;99.90
46091;DHT22;31826;53.572;10.170;2023-08-06T04:36:59;15.30;99.90
46091;DHT22;31826;53.572;10.170;2023-08-06T04:39:25;15.30;99.90
46091;DHT22;31826;53.572;10.170;2023-08-06T04:41:51;15.30;99.90
46091;DHT22;31826;53.572;10.170;2023-08-06T04:44:16;15.40;99.90
46091;DHT22;31826;53.572;10.170;2023-08-06T04:46:42;15.30;99.90
46091;DHT22;31826;53.572;10.170;2023-08-06T04:49:08;15.30;99.90
46091;DHT22;31826;53.572;10.170;2023-08-06T04:51:33;15.40;99.90
46091;DHT22;31826;53.572;10.170;2023-08-06T04:53:59;15.40;99.90
46091;DHT22;31826;53.572;10.170;2023-08-06T04:56:25;15.40;99.90
46091;DHT22;31826;53.572;10.170;2023-08-06T04:58:50;15.40;99.90
46091;DHT22;31826;53.572;10.170;2023-08-06T05:01:17;15.40;99.90
46091;DHT22;31826;53.572;10.170;2023-08-06T05:03:42;15.40;99.90
46091;DHT22;31826;53.572;10.170;2023-08-06T05:06:08;15.50;99.90
46091;DHT22;31826;53.572;10.170;2023-08-06T05:08:34;15.50;99.90
46091;DHT22;31826;53.572;10.170;2023-08-06T05:10:59;15.40;99.90
46091;DHT22;31826;53.572;10.170;2023-08-06T05:13:25;15.40;99.90
46091;DHT22;31826;53.572;10.170;2023-08-06T05:15:53;15.50;99.90
46091;DHT22;31826;53.572;10.170;2023-08-06T05:18:19;15.40;99.90
46091;DHT22;31826;53.572;10.170;2023-08-06T05:20:44;15.30;99.90
46091;DHT22;31826;53.572;10.170;2023-08-06T05:23:10;15.30;99.90
46091;DHT22;31826;53.572;10.170;2023-08-06T05:25:40;15.40;99.90
46091;DHT22;31826;53.572;10.170;2023-08-06T05:28:05;15.40;99.90
46091;DHT22;31826;53.572;10.170;2023-08-06T05:30:31;15.40;99.90
46091;DHT22;31826;53.572;10.170;2023-08-06T05:32:57;15.40;99.90
46091;DHT22;31826;53.572;10.170;2023-08-06T05:35:23;15.50;99.90
46091;DHT22;31826;53.572;10.170;2023-08-06T05:37:50;15.50;99.90
46091;DHT22;31826;53.572;10.170;2023-08-06T05:40:15;15.50;99.90
46091;DHT22;31826;53.572;10.170;2023-08-06T05:42:41;15.60;99.90
46091;DHT22;31826;53.572;10.170;2023-08-06T05:45:08;15.60;99.90
46091;DHT22;31826;53.572;10.170;2023-08-06T05:47:33;15.70;99.90
46091;DHT22;31826;53.572;10.170;2023-08-06T05:49:59;15.70;99.90
46091;DHT22;31826;53.572;10.170;2023-08-06T05:52:25;15.70;99.90
46091;DHT22;31826;53.572;10.170;2023-08-06T05:54:51;15.80;99.90
46091;DHT22;31826;53.572;10.170;2023-08-06T05:57:17;15.80;99.90
46091;DHT22;31826;53.572;10.170;2023-08-06T05:59:43;15.80;99.90
46091;DHT22;31826;53.572;10.170;2023-08-06T06:02:09;15.80;99.90
46091;DHT22;31826;53.572;10.170;2023-08-06T06:04:35;15.80;99.90
46091;DHT22;31826;53.572;10.170;2023-08-06T06:07:00;15.80;99.90
46091;DHT22;31826;53.572;10.170;2023-08-06T06:09:26;15.70;99.90
46091;DHT22;31826;53.572;10.170;2023-08-06T06:11:52;15.70;99.90
46091;DHT22;31826;53.572;10.170;2023-08-06T06:14:18;15.80;99.90
46091;DHT22;31826;53.572;10.170;2023-08-06T06:16:44;15.80;99.90
46091;DHT22;31826;53.572;10.170;2023-08-06T06:19:11;15.80;99.90
46091;DHT22;31826;53.572;10.170;2023-08-06T06:21:36;15.80;99.90
46091;DHT22;31826;53.572;10.170;2023-08-06T06:24:04;15.90;99.90
46091;DHT22;31826;53.572;10.170;2023-08-06T06:26:31;15.90;99.90
46091;DHT22;31826;53.572;10.170;2023-08-06T06:28:57;15.90;99.90
46091;DHT22;31826;53.572;10.170;2023-08-06T06:31:23;15.90;99.90
46091;DHT22;31826;53.572;10.170;2023-08-06T06:33:48;15.80;99.90
46091;DHT22;31826;53.572;10.170;2023-08-06T06:36:14;15.80;99.90
46091;DHT22;31826;53.572;10.170;2023-08-06T06:38:40;15.90;99.90
46091;DHT22;31826;53.572;10.170;2023-08-06T06:41:05;15.90;99.90
46091;DHT22;31826;53.572;10.170;2023-08-06T06:43:31;16.00;99.90
46091;DHT22;31826;53.572;10.170;2023-08-06T06:46:01;16.00;99.90
46091;DHT22;31826;53.572;10.170;2023-08-06T06:48:32;16.00;99.90
46091;DHT22;31826;53.572;10.170;2023-08-06T06:50:58;16.00;99.90
46091;DHT22;31826;53.572;10.170;2023-08-06T06:53:24;16.10;99.90
46091;DHT22;31826;53.572;10.170;2023-08-06T06:55:54;16.10;99.90
46091;DHT22;31826;53.572;10.170;2023-08-06T06:58:20;16.00;99.90
46091;DHT22;31826;53.572;10.170;2023-08-06T07:00:47;16.10;99.90
46091;DHT22;31826;53.572;10.170;2023-08-06T07:03:14;16.00;99.90
46091;DHT22;31826;53.572;10.170;2023-08-06T07:05:39;16.10;99.90
46091;DHT22;31826;53.572;10.170;2023-08-06T07:08:05;16.20;99.90
46091;DHT22;31826;53.572;10.170;2023-08-06T07:10:31;16.20;99.90
46091;DHT22;31826;53.572;10.170;2023-08-06T07:12:56;16.30;99.90
46091;DHT22;31826;53.572;10.170;2023-08-06T07:15:22;16.40;99.90
46091;DHT22;31826;53.572;10.170;2023-08-06T07:17:48;16.40;99.90
46091;DHT22;31826;53.572;10.170;2023-08-06T07:20:13;16.50;99.90
46091;DHT22;31826;53.572;10.170;2023-08-06T07:22:39;16.60;99.90
46091;DHT22;31826;53.572;10.170;2023-08-06T07:25:05;16.70;99.90
46091;DHT22;31826;53.572;10.170;2023-08-06T07:27:32;16.80;99.90
46091;DHT22;31826;53.572;10.170;2023-08-06T07:29:57;16.90;99.90
46091;DHT22;31826;53.572;10.170;2023-08-06T07:32:24;16.90;99.90
46091;DHT22;31826;53.572;10.170;2023-08-06T07:34:49;17.00;99.90
46091;DHT22;31826;53.572;10.170;2023-08-06T07:37:15;17.00;99.90
46091;DHT22;31826;53.572;10.170;2023-08-06T07:39:41;17.00;99.90
46091;DHT22;31826;53.572;10.170;2023-08-06T07:42:08;16.90;99.90
46091;DHT22;31826;53.572;10.170;2023-08-06T07:44:34;16.90;99.90
46091;DHT22;31826;53.572;10.170;2023-08-06T07:46:59;16.80;99.90
46091;DHT22;31826;53.572;10.170;2023-08-06T07:49:26;16.80;99.90
46091;DHT22;31826;53.572;10.170;2023-08-06T07:51:52;16.80;99.90
46091;DHT22;31826;53.572;10.170;2023-08-06T07:54:18;16.80;99.90
46091;DHT22;31826;53.572;10.170;2023-08-06T07:56:44;16.80;99.90
46091;DHT22;31826;53.572;10.170;2023-08-06T07:59:09;16.80;99.90
46091;DHT22;31826;53.572;10.170;2023-08-06T08:01:35;16.90;99.90
46091;DHT22;31826;53.572;10.170;2023-08-06T08:04:01;16.90;99.90
46091;DHT22;31826;53.572;10.170;2023-08-06T08:06:26;16.90;99.90
46091;DHT22;31826;53.572;10.170;2023-08-06T08:08:52;16.90;99.90
46091;DHT22;31826;53.572;10.170;2023-08-06T08:11:18;17.00;99.90
46091;DHT22;31826;53.572;10.170;2023-08-06T08:13:44;17.00;99.90
46091;DHT22;31826;53.572;10.170;2023-08-06T08:16:09;17.10;99.90
46091;DHT22;31826;53.572;10.170;2023-08-06T08:18:35;17.00;99.90
46091;DHT22;31826;53.572;10.170;2023-08-06T08:21:01;17.00;99.90
46091;DHT22;31826;53.572;10.170;2023-08-06T08:23:27;17.00;99.90
46091;DHT22;31826;53.572;10.170;2023-08-06T08:25:52;17.10;99.90
46091;DHT22;31826;53.572;10.170;2023-08-06T08:28:18;17.10;99.90
46091;DHT22;31826;53.572;10.170;2023-08-06T08:30:44;17.10;99.90
46091;DHT22;31826;53.572;10.170;2023-08-06T08:33:10;17.20;99.90
46091;DHT22;31826;53.572;10.170;2023-08-06T08:35:36;17.10;99.90
46091;DHT22;31826;53.572;10.170;2023-08-06T08:38:03;17.20;99.90
46091;DHT22;31826;53.572;10.170;2023-08-06T08:40:33;17.20;99.90
46091;DHT22;31826;53.572;10.170;2023-08-06T08:43:00;17.20;99.90
46091;DHT22;31826;53.572;10.170;2023-08-06T08:45:29;17.30;99.90
46091;DHT22;31826;53.572;10.170;2023-08-06T08:47:55;17.30;99.90
46091;DHT22;31826;53.572;10.170;2023-08-06T08:50:21;17.30;99.90
46091;DHT22;31826;53.572;10.170;2023-08-06T08:52:47;17.40;99.90
46091;DHT22;31826;53.572;10.170;2023-08-06T08:55:16;17.40;99.90
46091;DHT22;31826;53.572;10.170;2023-08-06T08:57:44;17.40;99.90
46091;DHT22;31826;53.572;10.170;2023-08-06T09:00:12;17.40;99.90
46091;DHT22;31826;53.572;10.170;2023-08-06T09:02:40;17.40;99.90
46091;DHT22;31826;53.572;10.170;2023-08-06T09:05:07;17.40;99.90
46091;DHT22;31826;53.572;10.170;2023-08-06T09:07:42;17.30;99.90
46091;DHT22;31826;53.572;10.170;2023-08-06T09:10:11;17.30;99.90
46091;DHT22;31826;53.572;10.170;2023-08-06T09:12:39;17.30;99.90
46091;DHT22;31826;53.572;10.170;2023-08-06T09:15:06;17.30;99.90
46091;DHT22;31826;53.572;10.170;2023-08-06T09:17:32;17.30;99.90
46091;DHT22;31826;53.572;10.170;2023-08-06T09:19:57;17.30;99.90
46091;DHT22;31826;53.572;10.170;2023-08-06T09:22:23;17.30;99.90
46091;DHT22;31826;53.572;10.170;2023-08-06T09:24:49;17.30;99.90
46091;DHT22;31826;53.572;10.170;2023-08-06T09:27:15;17.30;99.90
46091;DHT22;31826;53.572;10.170;2023-08-06T09:29:45;17.40;99.90
46091;DHT22;31826;53.572;10.170;2023-08-06T09:32:12;17.40;99.90
46091;DHT22;31826;53.572;10.170;2023-08-06T09:34:42;17.40;99.90
46091;DHT22;31826;53.572;10.170;2023-08-06T09:37:11;17.40;99.90
46091;DHT22;31826;53.572;10.170;2023-08-06T09:39:39;17.40;99.90
46091;DHT22;31826;53.572;10.170;2023-08-06T09:42:06;17.40;99.90
46091;DHT22;31826;53.572;10.170;2023-08-06T09:44:33;17.40;99.90
46091;DHT22;31826;53.572;10.170;2023-08-06T09:47:01;17.40;99.90
46091;DHT22;31826;53.572;10.170;2023-08-06T09:49:39;17.40;99.90
46091;DHT22;31826;53.572;10.170;2023-08-06T09:52:11;17.30;99.90
46091;DHT22;31826;53.572;10.170;2023-08-06T09:54:37;17.30;99.90
46091;DHT22;31826;53.572;10.170;2023-08-06T09:57:04;17.30;99.90
46091;DHT22;31826;53.572;10.170;2023-08-06T09:59:32;17.30;99.90
46091;DHT22;31826;53.572;10.170;2023-08-06T10:01:58;17.20;99.90
46091;DHT22;31826;53.572;10.170;2023-08-06T10:04:24;17.20;99.90
46091;DHT22;31826;53.572;10.170;2023-08-06T10:06:50;17.10;99.90
46091;DHT22;31826;53.572;10.170;2023-08-06T10:09:16;17.10;99.90
46091;DHT22;31826;53.572;10.170;2023-08-06T10:11:44;17.00;99.90
46091;DHT22;31826;53.572;10.170;2023-08-06T10:14:16;17.00;99.90
46091;DHT22;31826;53.572;10.170;2023-08-06T10:16:44;16.90;99.90
46091;DHT22;31826;53.572;10.170;2023-08-06T10:19:11;17.00;99.90
46091;DHT22;31826;53.572;10.170;2023-08-06T10:21:40;16.90;99.90
46091;DHT22;31826;53.572;10.170;2023-08-06T10:24:09;17.00;99.90
46091;DHT22;31826;53.572;10.170;2023-08-06T10:26:40;16.90;99.90
46091;DHT22;31826;53.572;10.170;2023-08-06T10:29:36;17.00;99.90
46091;DHT22;31826;53.572;10.170;2023-08-06T10:32:02;17.00;99.90
46091;DHT22;31826;53.572;10.170;2023-08-06T10:34:56;17.00;99.90
46091;DHT22;31826;53.572;10.170;2023-08-06T10:37:23;17.10;99.90
46091;DHT22;31826;53.572;10.170;2023-08-06T10:39:52;17.10;99.90
46091;DHT22;31826;53.572;10.170;2023-08-06T10:42:28;17.10;99.90
46091;DHT22;31826;53.572;10.170;2023-08-06T10:45:13;17.20;99.90
46091;DHT22;31826;53.572;10.170;2023-08-06T10:47:40;17.10;99.90
46091;DHT22;31826;53.572;10.170;2023-08-06T10:50:16;17.10;99.90
46091;DHT22;31826;53.572;10.170;2023-08-06T10:52:46;17.20;99.90
46091;DHT22;31826;53.572;10.170;2023-08-06T10:55:13;17.20;99.90
46091;DHT22;31826;53.572;10.170;2023-08-06T10:57:39;17.20;99.90
46091;DHT22;31826;53.572;10.170;2023-08-06T11:00:08;17.30;99.90
46091;DHT22;31826;53.572;10.170;2023-08-06T11:02:35;17.20;99.90
46091;DHT22;31826;53.572;10.170;2023-08-06T11:05:08;17.20;99.90
46091;DHT22;31826;53.572;10.170;2023-08-06T11:07:35;17.30;99.90
46091;DHT22;31826;53.572;10.170;2023-08-06T11:10:06;17.30;99.90
46091;DHT22;31826;53.572;10.170;2023-08-06T11:12:32;17.40;99.90
46091;DHT22;31826;53.572;10.170;2023-08-06T11:14:58;17.30;99.90
46091;DHT22;31826;53.572;10.170;2023-08-06T11:17:25;17.40;99.90
46091;DHT22;31826;53.572;10.170;2023-08-06T11:19:52;17.40;99.90
46091;DHT22;31826;53.572;10.170;2023-08-06T11:22:19;17.50;99.90
46091;DHT22;31826;53.572;10.170;2023-08-06T11:24:45;17.60;99.90
46091;DHT22;31826;53.572;10.170;2023-08-06T11:27:12;17.60;99.90
46091;DHT22;31826;53.572;10.170;2023-08-06T11:29:38;17.60;99.90
46091;DHT22;31826;53.572;10.170;2023-08-06T11:32:05;17.70;99.90
46091;DHT22;31826;53.572;10.170;2023-08-06T11:34:31;17.70;99.90
46091;DHT22;31826;53.572;10.170;2023-08-06T11:36:57;17.70;99.90
46091;DHT22;31826;53.572;10.170;2023-08-06T11:39:23;17.70;99.90
46091;DHT22;31826;53.572;10.170;2023-08-06T11:41:49;17.70;99.90
46091;DHT22;31826;53.572;10.170;2023-08-06T11:44:15;17.70;99.90
46091;DHT22;31826;53.572;10.170;2023-08-06T11:46:50;17.70;99.90
46091;DHT22;31826;53.572;10.170;2023-08-06T11:49:18;17.70;99.90
46091;DHT22;31826;53.572;10.170;2023-08-06T11:51:47;17.70;99.90
46091;DHT22;31826;53.572;10.170;2023-08-06T11:54:13;17.70;99.90
46091;DHT22;31826;53.572;10.170;2023-08-06T11:56:39;17.70;99.90
46091;DHT22;31826;53.572;10.170;2023-08-06T11:59:05;17.70;99.90
46091;DHT22;31826;53.572;10.170;2023-08-06T12:01:32;17.80;99.90
46091;DHT22;31826;53.572;10.170;2023-08-06T12:04:00;17.70;99.90
46091;DHT22;31826;53.572;10.170;2023-08-06T12:06:29;17.80;99.90
46091;DHT22;31826;53.572;10.170;2023-08-06T12:08:55;17.70;99.90
46091;DHT22;31826;53.572;10.170;2023-08-06T12:11:23;17.70;99.90
46091;DHT22;31826;53.572;10.170;2023-08-06T12:13:52;17.80;99.90
46091;DHT22;31826;53.572;10.170;2023-08-06T12:16:19;17.70;99.90
46091;DHT22;31826;53.572;10.170;2023-08-06T12:18:47;17.90;99.90
46091;DHT22;31826;53.572;10.170;2023-08-06T12:21:14;17.90;99.90
46091;DHT22;31826;53.572;10.170;2023-08-06T12:23:40;18.00;99.90
46091;DHT22;31826;53.572;10.170;2023-08-06T12:26:06;18.00;99.90
46091;DHT22;31826;53.572;10.170;2023-08-06T12:28:31;18.10;99.90
46091;DHT22;31826;53.572;10.170;2023-08-06T12:30:57;18.00;99.90
46091;DHT22;31826;53.572;10.170;2023-08-06T12:33:23;17.90;99.90
46091;DHT22;31826;53.572;10.170;2023-08-06T12:35:48;17.90;99.90
46091;DHT22;31826;53.572;10.170;2023-08-06T12:38:15;18.00;99.90
46091;DHT22;31826;53.572;10.170;2023-08-06T12:40:40;17.90;99.90
46091;DHT22;31826;53.572;10.170;2023-08-06T12:43:06;17.90;99.90
46091;DHT22;31826;53.572;10.170;2023-08-06T12:45:32;17.90;99.90
46091;DHT22;31826;53.572;10.170;2023-08-06T12:47:57;17.90;99.90
46091;DHT22;31826;53.572;10.170;2023-08-06T12:50:23;17.90;99.90
46091;DHT22;31826;53.572;10.170;2023-08-06T12:52:49;17.80;99.90
46091;DHT22;31826;53.572;10.170;2023-08-06T12:55:14;17.80;99.90
46091;DHT22;31826;53.572;10.170;2023-08-06T12:57:40;17.90;99.90
46091;DHT22;31826;53.572;10.170;2023-08-06T13:00:06;18.00;99.90
46091;DHT22;31826;53.572;10.170;2023-08-06T13:02:32;18.10;99.90
46091;DHT22;31826;53.572;10.170;2023-08-06T13:04:58;18.10;99.90
46091;DHT22;31826;53.572;10.170;2023-08-06T13:07:24;18.00;99.90
46091;DHT22;31826;53.572;10.170;2023-08-06T13:09:51;18.00;99.90
46091;DHT22;31826;53.572;10.170;2023-08-06T13:12:16;18.00;99.90
46091;DHT22;31826;53.572;10.170;2023-08-06T13:14:44;18.00;99.90
46091;DHT22;31826;53.572;10.170;2023-08-06T13:17:10;18.10;99.90
46091;DHT22;31826;53.572;10.170;2023-08-06T13:19:35;18.10;99.90
46091;DHT22;31826;53.572;10.170;2023-08-06T13:22:03;18.20;99.90
46091;DHT22;31826;53.572;10.170;2023-08-06T13:24:30;18.20;99.90
46091;DHT22;31826;53.572;10.170;2023-08-06T13:26:56;18.30;99.90
46091;DHT22;31826;53.572;10.170;2023-08-06T13:29:22;18.40;99.90
46091;DHT22;31826;53.572;10.170;2023-08-06T13:31:48;18.60;99.90
46091;DHT22;31826;53.572;10.170;2023-08-06T13:34:13;18.70;99.90
46091;DHT22;31826;53.572;10.170;2023-08-06T13:36:41;18.90;99.90
46091;DHT22;31826;53.572;10.170;2023-08-06T13:39:07;19.00;99.90
46091;DHT22;31826;53.572;10.170;2023-08-06T13:41:33;19.10;99.90
46091;DHT22;31826;53.572;10.170;2023-08-06T13:43:59;19.20;99.90
46091;DHT22;31826;53.572;10.170;2023-08-06T13:46:24;19.30;99.90
46091;DHT22;31826;53.572;10.170;2023-08-06T13:48:50;19.30;99.90
46091;DHT22;31826;53.572;10.170;2023-08-06T13:51:16;19.30;99.90
46091;DHT22;31826;53.572;10.170;2023-08-06T13:53:42;19.40;99.90
46091;DHT22;31826;53.572;10.170;2023-08-06T13:56:11;19.40;99.90
46091;DHT22;31826;53.572;10.170;2023-08-06T13:58:39;19.20;99.90
46091;DHT22;31826;53.572;10.170;2023-08-06T14:01:05;19.30;99.90
46091;DHT22;31826;53.572;10.170;2023-08-06T14:03:31;19.30;99.90
46091;DHT22;31826;53.572;10.170;2023-08-06T14:05:57;19.30;99.90
46091;DHT22;31826;53.572;10.170;2023-08-06T14:08:23;19.30;99.90
46091;DHT22;31826;53.572;10.170;2023-08-06T14:10:50;19.20;99.90
46091;DHT22;31826;53.572;10.170;2023-08-06T14:13:16;19.20;99.90
46091;DHT22;31826;53.572;10.170;2023-08-06T14:15:42;19.10;99.90
46091;DHT22;31826;53.572;10.170;2023-08-06T14:18:15;19.00;99.90
46091;DHT22;31826;53.572;10.170;2023-08-06T14:20:41;18.90;99.90
46091;DHT22;31826;53.572;10.170;2023-08-06T14:23:07;18.80;99.90
46091;DHT22;31826;53.572;10.170;2023-08-06T14:25:33;18.80;99.90
46091;DHT22;31826;53.572;10.170;2023-08-06T14:27:58;18.70;99.90
46091;DHT22;31826;53.572;10.170;2023-08-06T14:30:24;18.70;99.90
46091;DHT22;31826;53.572;10.170;2023-08-06T14:32:50;18.70;99.90
46091;DHT22;31826;53.572;10.170;2023-08-06T14:35:16;18.80;99.90
46091;DHT22;31826;53.572;10.170;2023-08-06T14:37:41;18.60;99.90
46091;DHT22;31826;53.572;10.170;2023-08-06T14:40:08;18.70;99.90
46091;DHT22;31826;53.572;10.170;2023-08-06T14:42:34;18.60;99.90
46091;DHT22;31826;53.572;10.170;2023-08-06T14:44:59;18.70;99.90
46091;DHT22;31826;53.572;10.170;2023-08-06T14:47:25;18.70;99.90
46091;DHT22;31826;53.572;10.170;2023-08-06T14:49:51;18.60;99.90
46091;DHT22;31826;53.572;10.170;2023-08-06T14:52:17;18.50;99.90
46091;DHT22;31826;53.572;10.170;2023-08-06T14:54:42;18.40;99.90
46091;DHT22;31826;53.572;10.170;2023-08-06T14:57:09;18.40;99.90
46091;DHT22;31826;53.572;10.170;2023-08-06T14:59:35;18.30;99.90
46091;DHT22;31826;53.572;10.170;2023-08-06T15:02:01;18.20;99.90
46091;DHT22;31826;53.572;10.170;2023-08-06T15:04:27;18.20;99.90
46091;DHT22;31826;53.572;10.170;2023-08-06T15:06:53;18.10;99.90
46091;DHT22;31826;53.572;10.170;2023-08-06T15:09:19;18.10;99.90
46091;DHT22;31826;53.572;10.170;2023-08-06T15:11:47;18.00;99.90
46091;DHT22;31826;53.572;10.170;2023-08-06T15:14:13;18.00;99.90
46091;DHT22;31826;53.572;10.170;2023-08-06T15:16:40;18.00;99.90